CDT,Max TemperatureF,Mean TemperatureF,Min TemperatureF,Max Dew PointF,MeanDew PointF,Min DewpointF,Max Humidity, Mean Humidity, Min Humidity, Max Sea Level PressureIn, Mean Sea Level PressureIn, Min Sea Level PressureIn, Max VisibilityMiles, Mean VisibilityMiles, Min VisibilityMiles, Max Wind SpeedMPH, Mean Wind SpeedMPH, Max Gust SpeedMPH,PrecipitationIn, CloudCover, Events, WindDirDegrees
2012-10-1,69,54,38,49,35,22,83,52,20,30.22,30.11,30.02,10,10,10,26,11,32,T,2,Rain,339
2012-10-2,86,63,39,33,31,25,57,36,15,29.99,29.78,29.64,10,10,10,20,10,24,0.00,0,,169
2012-10-3,73,56,38,40,34,29,76,51,25,30.17,29.83,29.65,10,9,4,43,18,54,T,3,Rain,9
2012-10-4,49,39,28,36,30,22,79,59,39,30.40,30.32,30.17,10,10,10,28,18,33,T,6,Rain,331
2012-10-5,48,37,25,30,23,16,85,60,34,30.42,30.38,30.34,10,10,10,24,12,32,0.00,1,,316
2012-10-6,47,33,19,27,21,16,92,65,37,30.48,30.40,30.27,10,10,10,14,6,24,0.00,2,,310
2012-10-7,61,42,23,29,23,14,75,49,23,30.26,30.03,29.83,10,10,10,12,10,14,0.00,1,,254
2012-10-8,64,53,42,46,35,26,80,58,35,29.82,29.75,29.69,10,10,10,30,15,37,T,5,Rain,273
2012-10-9,51,40,29,41,24,16,68,49,29,30.16,30.02,29.82,10,10,10,32,17,39,0.00,3,,316
2012-10-10,70,49,28,30,24,17,72,45,18,30.16,29.99,29.81,10,10,10,20,9,25,0.00,0,,231
2012-10-11,51,42,33,34,31,27,76,62,48,30.39,30.25,29.90,10,10,10,26,10,31,T,5,,7
2012-10-12,64,47,29,37,27,20,85,54,22,30.38,30.04,29.76,10,10,10,32,18,40,0.00,0,,156
2012-10-13,75,57,38,40,35,30,85,53,20,29.84,29.70,29.65,10,10,10,21,8,25,0.00,0,,342
2012-10-14,73,58,42,39,35,31,76,51,25,29.99,29.94,29.89,10,10,10,24,10,29,0.00,1,,306
2012-10-15,81,63,44,36,31,29,58,37,15,29.91,29.75,29.61,10,10,10,15,7,18,0.00,0,,252
2012-10-16,74,63,51,50,42,35,77,52,27,29.64,29.45,29.26,10,10,10,29,10,35,0.08,3,Rain,254
2012-10-17,59,53,47,51,28,17,86,54,21,29.57,29.47,29.29,10,10,9,54,38,67,0.12,4,Rain,305
2012-10-18,50,47,44,34,32,24,65,51,36,29.89,29.70,29.55,10,10,10,55,42,74,0.00,8,,317
2012-10-19,53,44,35,34,32,30,76,60,44,29.91,29.84,29.73,10,10,10,39,13,52,0.00,4,,323
2012-10-20,75,54,32,36,32,30,92,56,20,29.73,29.60,29.49,10,10,10,20,10,24,0.00,0,,129
2012-10-21,66,54,41,45,39,33,89,67,44,29.99,29.79,29.47,10,10,10,23,13,26,0.00,0,,7
2012-10-22,56,44,32,44,38,31,89,70,51,30.02,29.92,29.76,10,10,10,21,8,25,0.00,3,,88
2012-10-23,70,58,45,49,45,40,93,70,47,29.89,29.70,29.58,10,10,10,31,11,38,T,4,Rain,123
2012-10-24,46,40,34,40,34,30,92,81,70,30.09,29.99,29.86,10,10,8,21,11,24,0.15,8,Rain,342
2012-10-25,37,34,31,28,24,21,82,69,56,30.39,30.22,30.06,10,10,10,28,19,36,0.00,7,,322
2012-10-26,38,28,18,22,18,15,91,66,40,30.50,30.42,30.34,10,10,10,25,13,30,0.00,6,,283
2012-10-27,43,31,19,29,24,16,100,79,57,30.32,30.22,30.13,10,9,1,10,6,14,0.00,2,,113
2012-10-28,48,39,29,35,32,21,100,78,56,30.22,30.13,29.99,10,4,0,18,10,21,0.00,5,Fog,105
2012-10-29,62,46,30,36,34,28,92,66,39,30.05,30.00,29.97,10,10,10,18,7,22,0.00,4,,123
2012-10-30,64,51,37,39,36,34,85,62,39,30.03,29.99,29.96,10,10,10,13,5,16,0.00,2,,124
2012-10-31,68,49,30,42,36,30,100,68,35,30.06,29.99,29.91,10,8,1,23,6,25,0.00,1,,313